createdAt,value
2022-09-15T00:00:08.932Z,99400.75
2022-09-15T00:02:35.762Z,99373.25
2022-09-15T00:05:03.109Z,99400.25
2022-09-15T00:07:31.247Z,99396.75
2022-09-15T00:09:58.030Z,99404.00
2022-09-15T00:12:25.140Z,99402.41
2022-09-15T00:14:51.845Z,99409.41
2022-09-15T00:17:18.613Z,99401.88
2022-09-15T00:19:45.708Z,99403.78
2022-09-15T00:22:12.418Z,99389.97
2022-09-15T00:24:39.136Z,99409.69
2022-09-15T00:27:05.959Z,99406.69
2022-09-15T00:29:32.660Z,99405.84
2022-09-15T00:31:59.338Z,99377.25
2022-09-15T00:34:26.103Z,99391.00
2022-09-15T00:36:52.754Z,99405.00
2022-09-15T00:39:19.493Z,99393.88
2022-09-15T00:41:46.199Z,99407.06
2022-09-15T00:44:18.740Z,99410.78
2022-09-15T00:47:04.051Z,99404.06
2022-09-15T00:49:38.860Z,99403.75
2022-09-15T00:52:10.174Z,99402.25
2022-09-15T00:55:05.777Z,99405.22
2022-09-15T00:57:47.738Z,99396.97
2022-09-15T01:00:18.635Z,99406.19
2022-09-15T01:02:47.403Z,99409.19
2022-09-15T01:05:17.723Z,99407.06
2022-09-15T01:07:56.315Z,99411.97
2022-09-15T01:10:31.793Z,99406.84
2022-09-15T01:13:06.998Z,99384.50
2022-09-15T01:15:42.743Z,99380.47
2022-09-15T01:18:18.611Z,99370.75
2022-09-15T01:21:09.015Z,99377.50
2022-09-15T01:24:00.103Z,99365.13
2022-09-15T01:27:09.653Z,99366.22
2022-09-15T01:29:55.135Z,99368.91
2022-09-15T01:33:05.445Z,99369.72
2022-09-15T01:35:56.054Z,99365.16
2022-09-15T01:38:51.066Z,99360.31
2022-09-15T01:41:37.828Z,99358.41
2022-09-15T01:44:12.141Z,99363.56
2022-09-15T01:46:48.711Z,99353.28
2022-09-15T01:49:23.105Z,99356.00
2022-09-15T01:51:52.427Z,99343.84
2022-09-15T01:54:39.144Z,99369.97
2022-09-15T01:57:05.964Z,99372.06
2022-09-15T01:59:34.736Z,99371.00
2022-09-15T02:02:10.135Z,99369.63
2022-09-15T02:05:03.558Z,99367.97
2022-09-15T02:07:57.110Z,99366.81
2022-09-15T02:10:34.123Z,99356.78
2022-09-15T02:13:11.683Z,99365.38
2022-09-15T02:15:47.106Z,99363.88
2022-09-15T02:18:17.932Z,99356.38
2022-09-15T02:20:57.800Z,99366.22
2022-09-15T02:23:36.869Z,99375.94
2022-09-15T02:26:10.068Z,99360.53
2022-09-15T02:28:39.636Z,99374.22
2022-09-15T02:31:11.983Z,99371.25
2022-09-15T02:33:49.818Z,99355.91
2022-09-15T02:36:20.300Z,99368.97
2022-09-15T02:38:54.247Z,99373.88
2022-09-15T02:41:21.412Z,99371.75
2022-09-15T02:43:49.375Z,99363.66
2022-09-15T02:46:20.139Z,99374.38
2022-09-15T02:48:47.269Z,99379.69
2022-09-15T02:51:14.475Z,99370.59
2022-09-15T02:53:41.284Z,99383.56
2022-09-15T02:56:07.988Z,99382.97
2022-09-15T02:58:35.043Z,99374.25
2022-09-15T03:01:04.470Z,99373.94
2022-09-15T03:03:35.019Z,99365.06
2022-09-15T03:06:16.937Z,99367.09
2022-09-15T03:08:43.602Z,99371.44
2022-09-15T03:11:12.305Z,99371.50
2022-09-15T03:13:40.098Z,99366.44
2022-09-15T03:16:11.593Z,99379.19
2022-09-15T03:18:39.575Z,99384.78
2022-09-15T03:21:09.117Z,99382.03
2022-09-15T03:23:36.025Z,99376.03
2022-09-15T03:26:03.930Z,99380.41
2022-09-15T03:28:30.691Z,99371.13
2022-09-15T03:30:57.649Z,99389.84
2022-09-15T03:33:24.911Z,99402.72
2022-09-15T03:35:52.964Z,99402.19
2022-09-15T03:38:20.081Z,99399.41
2022-09-15T03:41:08.526Z,99400.22
2022-09-15T03:43:36.334Z,99395.59
2022-09-15T03:46:05.715Z,99392.13
2022-09-15T03:48:35.623Z,99383.59
2022-09-15T03:51:05.766Z,99404.88
2022-09-15T03:53:34.454Z,99388.34
2022-09-15T03:56:22.794Z,99408.00
2022-09-15T03:58:49.656Z,99414.38
2022-09-15T04:01:17.397Z,99415.56
2022-09-15T04:03:48.820Z,99408.47
2022-09-15T04:06:19.481Z,99401.91
2022-09-15T04:08:46.251Z,99400.50
2022-09-15T04:11:13.983Z,99397.38
2022-09-15T04:13:42.406Z,99392.88
2022-09-15T04:16:12.862Z,99390.94
2022-09-15T04:18:39.977Z,99395.13
2022-09-15T04:21:09.425Z,99399.16
2022-09-15T04:23:36.299Z,99390.78
2022-09-15T04:26:06.045Z,99384.66
2022-09-15T04:28:35.258Z,99390.41
2022-09-15T04:31:13.401Z,99377.28
2022-09-15T04:33:42.071Z,99379.56
2022-09-15T04:36:11.901Z,99383.31
2022-09-15T04:38:38.995Z,99365.03
2022-09-15T04:41:06.541Z,99375.63
2022-09-15T04:43:33.851Z,99384.75
2022-09-15T04:46:00.896Z,99387.63
2022-09-15T04:48:28.428Z,99385.22
2022-09-15T04:50:55.127Z,99401.03
2022-09-15T04:53:23.653Z,99407.88
2022-09-15T04:55:50.304Z,99414.56
2022-09-15T04:58:16.946Z,99394.13
2022-09-15T05:00:43.756Z,99405.84
2022-09-15T05:03:11.679Z,99374.41
2022-09-15T05:05:39.055Z,99407.94
2022-09-15T05:08:06.869Z,99394.56
2022-09-15T05:10:38.259Z,99405.13
2022-09-15T05:13:04.886Z,99402.50
2022-09-15T05:15:31.616Z,99396.47
2022-09-15T05:17:58.598Z,99393.34
2022-09-15T05:20:25.936Z,99392.06
2022-09-15T05:22:52.836Z,99397.31
2022-09-15T05:25:19.535Z,99393.59
2022-09-15T05:27:46.336Z,99400.09
2022-09-15T05:32:59.732Z,99359.31
2022-09-15T05:35:26.661Z,99392.34
2022-09-15T05:37:53.323Z,99423.44
2022-09-15T05:40:21.895Z,99426.69
2022-09-15T05:42:48.660Z,99418.75
2022-09-15T05:45:15.624Z,99409.84
2022-09-15T05:47:42.371Z,99405.00
2022-09-15T05:50:09.629Z,99418.88
2022-09-15T05:52:36.278Z,99399.13
2022-09-15T05:55:03.028Z,99417.50
2022-09-15T05:57:29.694Z,99430.22
2022-09-15T05:59:56.323Z,99423.16
2022-09-15T06:02:23.089Z,99428.00
2022-09-15T06:04:49.904Z,99432.88
2022-09-15T06:07:16.832Z,99427.19
2022-09-15T06:09:44.076Z,99427.16
2022-09-15T06:12:10.910Z,99418.25
2022-09-15T06:14:37.548Z,99424.75
2022-09-15T06:17:04.230Z,99418.78
2022-09-15T06:19:31.257Z,99420.25
2022-09-15T06:21:57.913Z,99419.75
2022-09-15T06:24:24.650Z,99409.66
2022-09-15T06:26:51.374Z,99408.75
2022-09-15T06:29:18.122Z,99412.72
2022-09-15T06:31:44.908Z,99416.63
2022-09-15T06:34:11.922Z,99408.81
2022-09-15T06:36:39.201Z,99413.56
2022-09-15T06:39:05.931Z,99408.84
2022-09-15T06:41:58.460Z,99414.34
2022-09-15T06:44:19.920Z,99401.28
2022-09-15T06:46:46.745Z,99401.34
2022-09-15T06:49:14.119Z,99390.94
2022-09-15T06:51:40.788Z,99384.00
2022-09-15T06:54:07.625Z,99389.22
2022-09-15T06:56:37.844Z,99401.63
2022-09-15T06:59:05.162Z,99410.91
2022-09-15T07:01:33.169Z,99385.22
2022-09-15T07:04:01.527Z,99393.25
2022-09-15T07:06:30.885Z,99401.50
2022-09-15T07:08:58.700Z,99401.63
2022-09-15T07:11:25.724Z,99404.78
2022-09-15T07:13:52.596Z,99409.28
2022-09-15T07:16:20.845Z,99401.75
2022-09-15T07:18:48.576Z,99391.72
2022-09-15T07:21:20.508Z,99392.16
2022-09-15T07:23:48.297Z,99388.78
2022-09-15T07:26:26.404Z,99384.69
2022-09-15T07:29:01.094Z,99373.03
2022-09-15T07:31:31.429Z,99379.16
2022-09-15T07:34:01.731Z,99374.59
2022-09-15T07:36:29.506Z,99372.97
2022-09-15T07:38:56.387Z,99371.91
2022-09-15T07:41:26.497Z,99371.59
2022-09-15T07:43:55.515Z,99375.34
2022-09-15T07:46:23.844Z,99382.28
2022-09-15T07:48:53.236Z,99383.28
2022-09-15T07:51:20.223Z,99393.53
2022-09-15T07:53:48.259Z,99383.78
2022-09-15T07:56:18.430Z,99383.06
2022-09-15T07:58:45.939Z,99389.84
2022-09-15T08:01:14.774Z,99385.38
2022-09-15T08:03:43.076Z,99393.22
2022-09-15T08:06:10.221Z,99374.97
2022-09-15T08:08:41.100Z,99386.84
2022-09-15T08:11:09.600Z,99385.81
2022-09-15T08:13:37.152Z,99376.66
2022-09-15T08:16:09.777Z,99392.19
2022-09-15T08:18:36.943Z,99394.28
2022-09-15T08:21:08.195Z,99390.91
2022-09-15T08:23:35.130Z,99389.28
2022-09-15T08:26:01.956Z,99385.47
2022-09-15T08:28:28.645Z,99383.81
2022-09-15T08:31:04.607Z,99375.97
2022-09-15T08:33:31.890Z,99381.59
2022-09-15T08:36:08.378Z,99379.69
2022-09-15T08:38:35.177Z,99375.47
2022-09-15T08:41:14.676Z,99367.75
2022-09-15T08:43:48.015Z,99361.97
2022-09-15T08:46:21.087Z,99366.13
2022-09-15T08:49:23.485Z,99373.47
2022-09-15T08:51:56.164Z,99357.81
2022-09-15T08:54:29.389Z,99359.50
2022-09-15T08:56:57.609Z,99361.41
2022-09-15T08:59:27.632Z,99356.00
2022-09-15T09:01:57.452Z,99343.53
2022-09-15T09:04:59.424Z,99350.88
2022-09-15T09:07:53.016Z,99348.16
2022-09-15T09:10:25.365Z,99346.13
2022-09-15T09:13:07.112Z,99336.22
2022-09-15T09:15:50.244Z,99332.78
2022-09-15T09:18:38.415Z,99317.13
2022-09-15T09:21:26.833Z,99318.13
2022-09-15T09:24:05.576Z,99320.28
2022-09-15T09:26:36.608Z,99308.13
2022-09-15T09:29:19.019Z,99317.28
2022-09-15T09:31:52.981Z,99315.16
2022-09-15T09:34:47.247Z,99314.63
2022-09-15T09:37:16.744Z,99314.84
2022-09-15T09:39:43.411Z,99307.41
2022-09-15T09:42:18.398Z,99305.38
2022-09-15T09:44:46.862Z,99296.63
2022-09-15T09:47:14.179Z,99299.91
2022-09-15T09:49:47.134Z,99305.66
2022-09-15T09:52:16.188Z,99293.72
2022-09-15T09:54:46.558Z,99303.94
2022-09-15T09:57:13.146Z,99290.97
2022-09-15T09:59:45.697Z,99288.00
2022-09-15T10:02:12.274Z,99293.44
2022-09-15T10:04:40.822Z,99280.22
2022-09-15T10:07:08.832Z,99283.22
2022-09-15T10:09:36.891Z,99290.97
2022-09-15T10:12:05.610Z,99279.81
2022-09-15T10:14:42.325Z,99271.13
2022-09-15T10:17:18.960Z,99274.38
2022-09-15T10:19:57.854Z,99266.75
2022-09-15T10:22:33.714Z,99263.41
2022-09-15T10:25:02.751Z,99266.38
2022-09-15T10:27:32.873Z,99241.56
2022-09-15T10:30:20.059Z,99262.81
2022-09-15T10:32:47.476Z,99265.25
2022-09-15T10:35:19.156Z,99261.75
2022-09-15T10:37:45.835Z,99264.16
2022-09-15T10:40:39.292Z,99249.19
2022-09-15T10:43:22.606Z,99245.31
2022-09-15T10:45:58.648Z,99233.38
2022-09-15T10:48:40.021Z,99240.06
2022-09-15T10:51:09.684Z,99233.97
2022-09-15T10:53:42.457Z,99228.78
2022-09-15T10:56:23.293Z,99228.06
2022-09-15T10:59:03.609Z,99222.50
2022-09-15T11:01:50.028Z,99215.59
2022-09-15T11:04:38.834Z,99206.53
2022-09-15T11:07:32.822Z,99207.94
2022-09-15T11:10:28.724Z,99205.88
2022-09-15T11:13:23.222Z,99209.53
2022-09-15T11:16:07.587Z,99210.16
2022-09-15T11:19:01.892Z,99217.94
2022-09-15T11:22:13.810Z,99207.31
2022-09-15T11:24:43.266Z,99196.66
2022-09-15T11:27:28.246Z,99192.38
2022-09-15T11:30:06.520Z,99195.19
2022-09-15T11:32:42.698Z,99190.94
2022-09-15T11:35:34.648Z,99187.00
2022-09-15T11:38:35.822Z,99189.16
2022-09-15T11:41:20.199Z,99182.69
2022-09-15T11:44:07.413Z,99181.41
2022-09-15T11:46:59.904Z,99177.78
2022-09-15T11:49:55.333Z,99159.88
2022-09-15T11:52:22.751Z,99164.91
2022-09-15T11:54:54.181Z,99159.69
2022-09-15T11:57:28.423Z,99158.31
2022-09-15T12:00:03.870Z,99155.31
2022-09-15T12:02:40.289Z,99156.38
2022-09-15T12:05:35.154Z,99156.56
2022-09-15T12:08:23.587Z,99145.47
2022-09-15T12:10:53.794Z,99146.69
2022-09-15T12:13:24.242Z,99148.28
2022-09-15T12:15:52.274Z,99125.69
2022-09-15T12:18:39.885Z,99135.50
2022-09-15T12:21:30.556Z,99136.69
2022-09-15T12:24:22.243Z,99123.09
2022-09-15T12:26:49.637Z,99132.78
2022-09-15T12:29:22.481Z,99116.97
2022-09-15T12:31:49.235Z,99111.13
2022-09-15T12:34:25.088Z,99113.59
2022-09-15T12:37:06.867Z,99115.09
2022-09-15T12:39:46.788Z,99112.25
2022-09-15T12:42:18.717Z,99117.72
2022-09-15T12:44:59.842Z,99100.00
2022-09-15T12:47:35.576Z,99105.28
2022-09-15T12:50:27.483Z,99103.03
2022-09-15T12:53:01.196Z,99093.94
2022-09-15T12:55:36.006Z,99102.25
2022-09-15T12:58:16.126Z,99093.56
2022-09-15T13:01:14.314Z,99095.47
2022-09-15T13:06:26.073Z,99095.53
2022-09-15T13:09:01.781Z,99078.88
2022-09-15T13:11:34.970Z,99077.50
2022-09-15T13:14:06.932Z,99082.22
2022-09-15T13:16:48.828Z,99075.50
2022-09-15T13:19:44.298Z,99061.03
2022-09-15T13:22:11.132Z,99072.41
2022-09-15T13:24:44.591Z,99054.16
2022-09-15T13:27:13.485Z,99061.28
2022-09-15T13:29:54.878Z,99062.56
2022-09-15T13:32:36.698Z,99071.94
2022-09-15T13:35:20.521Z,99072.38
2022-09-15T13:38:11.431Z,99068.00
2022-09-15T13:40:51.242Z,99066.44
2022-09-15T13:43:45.635Z,99062.22
2022-09-15T13:46:21.704Z,99052.75
2022-09-15T13:49:19.490Z,99057.66
2022-09-15T13:51:59.836Z,99050.63
2022-09-15T13:54:26.886Z,99055.38
2022-09-15T13:56:53.819Z,99057.38
2022-09-15T13:59:28.646Z,99053.44
2022-09-15T14:01:56.964Z,99053.53
2022-09-15T14:04:31.032Z,99051.94
2022-09-15T14:07:02.040Z,99032.97
2022-09-15T14:09:31.392Z,99036.88
2022-09-15T14:12:03.343Z,99041.84
2022-09-15T14:14:39.033Z,99035.53
2022-09-15T14:17:06.186Z,99025.44
2022-09-15T14:19:38.556Z,99035.31
2022-09-15T14:22:34.940Z,99035.31
2022-09-15T14:25:15.144Z,99034.56
2022-09-15T14:27:45.678Z,99031.31
2022-09-15T14:30:19.681Z,99041.47
2022-09-15T14:32:49.890Z,99038.28
2022-09-15T14:35:20.460Z,99027.28
2022-09-15T14:37:55.231Z,99036.41
2022-09-15T14:40:29.754Z,99036.41
2022-09-15T14:42:57.122Z,99028.03
2022-09-15T14:45:57.995Z,99027.94
2022-09-15T14:48:28.355Z,99023.56
2022-09-15T14:51:05.034Z,99035.19
2022-09-15T14:53:35.671Z,99024.72
2022-09-15T14:56:11.863Z,99001.66
2022-09-15T14:59:01.934Z,99021.91
2022-09-15T15:01:36.746Z,99020.94
2022-09-15T15:04:20.158Z,99013.66
2022-09-15T15:07:04.333Z,99009.31
2022-09-15T15:09:39.945Z,99013.41
2022-09-15T15:12:16.481Z,99010.13
2022-09-15T15:14:43.515Z,99008.06
2022-09-15T15:17:27.461Z,99017.44
2022-09-15T15:20:06.407Z,99011.94
2022-09-15T15:22:33.264Z,99010.22
2022-09-15T15:25:00.283Z,99015.56
2022-09-15T15:27:32.740Z,99013.13
2022-09-15T15:30:30.468Z,99020.63
2022-09-15T15:33:24.368Z,99016.38
2022-09-15T15:36:03.109Z,99012.38
2022-09-15T15:38:34.539Z,99008.50
2022-09-15T15:41:03.765Z,99012.63
2022-09-15T15:43:30.618Z,99008.63
2022-09-15T15:46:03.263Z,99015.22
2022-09-15T15:48:38.175Z,99005.69
2022-09-15T15:51:07.181Z,99009.03
2022-09-15T15:53:34.519Z,99016.84
2022-09-15T15:56:01.438Z,99011.19
2022-09-15T15:58:28.239Z,99009.78
2022-09-15T16:00:56.872Z,99007.63
2022-09-15T16:03:24.941Z,99013.38
2022-09-15T16:05:54.796Z,99012.22
2022-09-15T16:08:31.892Z,99022.78
2022-09-15T16:11:01.648Z,99009.69
2022-09-15T16:13:29.088Z,99023.00
2022-09-15T16:15:57.991Z,99023.22
2022-09-15T16:18:24.933Z,99015.25
2022-09-15T16:20:52.131Z,99018.69
2022-09-15T16:23:22.979Z,99020.09
2022-09-15T16:25:53.608Z,99010.69
2022-09-15T16:28:20.629Z,99009.88
2022-09-15T16:30:47.448Z,99015.53
2022-09-15T16:33:15.940Z,99022.88
2022-09-15T16:35:55.803Z,99024.75
2022-09-15T16:38:25.627Z,99021.13
2022-09-15T16:40:52.566Z,99004.41
2022-09-15T16:43:22.739Z,99013.44
2022-09-15T16:45:51.452Z,99015.16
2022-09-15T16:48:18.722Z,99001.81
2022-09-15T16:51:09.041Z,99020.00
2022-09-15T16:53:33.768Z,98998.16
2022-09-15T16:56:00.576Z,98991.47
2022-09-15T16:58:27.832Z,99007.91
2022-09-15T17:00:54.879Z,99014.41
2022-09-15T17:03:24.149Z,99007.81
2022-09-15T17:05:53.478Z,99011.13
2022-09-15T17:08:23.987Z,98971.66
2022-09-15T17:10:53.214Z,98997.06
2022-09-15T17:13:26.445Z,99010.19
2022-09-15T17:15:56.629Z,99034.69
2022-09-15T17:18:23.718Z,99021.56
2022-09-15T17:20:52.155Z,99026.91
2022-09-15T17:23:24.746Z,99031.81
2022-09-15T17:25:53.206Z,99018.28
2022-09-15T17:28:22.609Z,99040.84
2022-09-15T17:30:52.235Z,99030.88
2022-09-15T17:33:21.018Z,99012.81
2022-09-15T17:35:48.721Z,99030.69
2022-09-15T17:38:16.525Z,99030.69
2022-09-15T17:40:43.250Z,99029.88
2022-09-15T17:43:21.144Z,99019.75
2022-09-15T17:45:49.513Z,99034.66
2022-09-15T17:48:16.916Z,99046.59
2022-09-15T17:50:46.384Z,99054.53
2022-09-15T17:53:14.220Z,99041.53
2022-09-15T17:55:42.909Z,99026.53
2022-09-15T17:58:10.426Z,99057.00
2022-09-15T18:00:39.761Z,99049.44
2022-09-15T18:03:34.829Z,99048.41
2022-09-15T18:06:07.430Z,99056.16
2022-09-15T18:08:36.108Z,99047.25
2022-09-15T18:11:04.006Z,99046.56
2022-09-15T18:13:31.340Z,99040.84
2022-09-15T18:16:02.964Z,99050.00
2022-09-15T18:18:30.443Z,99054.16
2022-09-15T18:20:58.598Z,99055.75
2022-09-15T18:23:28.571Z,99059.38
2022-09-15T18:25:55.587Z,99052.56
2022-09-15T18:28:22.455Z,99069.22
2022-09-15T18:30:50.433Z,99037.63
2022-09-15T18:33:21.936Z,99059.94
2022-09-15T18:35:50.798Z,99058.16
2022-09-15T18:38:18.937Z,99060.41
2022-09-15T18:40:47.724Z,99060.13
2022-09-15T18:43:14.425Z,99054.66
2022-09-15T18:45:42.661Z,99038.34
2022-09-15T18:48:12.861Z,99069.47
2022-09-15T18:50:41.748Z,99057.97
2022-09-15T18:53:08.659Z,99061.97
2022-09-15T18:55:35.434Z,99013.53
2022-09-15T18:58:02.791Z,99053.31
2022-09-15T19:00:29.914Z,99052.53
2022-09-15T19:02:58.453Z,99067.91
2022-09-15T19:05:27.017Z,99060.56
2022-09-15T19:07:54.048Z,99062.16
2022-09-15T19:10:21.284Z,99078.34
2022-09-15T19:12:47.954Z,99072.25
2022-09-15T19:15:15.424Z,99078.94
2022-09-15T19:17:43.315Z,99075.41
2022-09-15T19:20:14.804Z,99053.31
2022-09-15T19:22:42.352Z,99072.53
2022-09-15T19:25:11.049Z,99072.69
2022-09-15T19:27:38.895Z,99075.22
2022-09-15T19:30:07.368Z,99074.38
2022-09-15T19:32:34.250Z,99051.25
2022-09-15T19:35:00.903Z,99065.19
2022-09-15T19:37:27.667Z,99055.41
2022-09-15T19:39:54.941Z,99050.22
2022-09-15T19:42:21.686Z,99052.47
2022-09-15T19:44:49.532Z,99008.38
2022-09-15T19:47:16.303Z,99066.53
2022-09-15T19:49:43.142Z,99040.41
2022-09-15T19:52:09.879Z,99050.19
2022-09-15T19:54:36.791Z,99048.06
2022-09-15T19:57:04.406Z,99038.59
2022-09-15T19:59:32.112Z,99050.13
2022-09-15T20:02:00.865Z,99043.25
2022-09-15T20:04:29.158Z,99044.72
2022-09-15T20:06:55.875Z,99048.34
2022-09-15T20:09:24.118Z,99052.75
2022-09-15T20:11:51.203Z,99060.72
2022-09-15T20:14:17.923Z,99064.13
2022-09-15T20:16:44.678Z,99058.81
2022-09-15T20:19:11.795Z,99054.25
2022-09-15T20:21:55.281Z,99049.59
2022-09-15T20:24:23.915Z,99044.16
2022-09-15T20:26:51.041Z,99029.22
2022-09-15T20:29:18.011Z,99035.13
2022-09-15T20:31:45.041Z,99034.03
2022-09-15T20:34:11.838Z,99037.09
2022-09-15T20:36:39.382Z,99047.41
2022-09-15T20:39:10.566Z,99019.25
2022-09-15T20:41:37.876Z,99053.38
2022-09-15T20:44:06.261Z,99033.81
2022-09-15T20:46:33.665Z,99038.41
2022-09-15T20:49:01.579Z,99054.34
2022-09-15T20:51:31.740Z,99048.81
2022-09-15T20:54:00.151Z,99052.47
2022-09-15T20:56:29.154Z,99043.78
2022-09-15T20:58:58.556Z,99046.50
2022-09-15T21:01:32.819Z,99052.97
2022-09-15T21:03:59.895Z,99060.09
2022-09-15T21:06:28.087Z,99053.06
2022-09-15T21:08:56.848Z,99055.59
2022-09-15T21:11:25.164Z,99041.00
2022-09-15T21:13:52.349Z,99029.22
2022-09-15T21:16:21.493Z,99036.97
2022-09-15T21:18:50.255Z,99038.75
2022-09-15T21:21:18.096Z,99030.41
2022-09-15T21:23:47.293Z,99032.56
2022-09-15T21:26:17.415Z,99031.34
2022-09-15T21:28:45.180Z,99033.06
2022-09-15T21:31:19.105Z,99032.13
2022-09-15T21:33:47.895Z,99042.72
2022-09-15T21:36:26.206Z,99036.28
2022-09-15T21:38:54.778Z,99014.09
2022-09-15T21:41:23.272Z,98995.63
2022-09-15T21:43:59.177Z,99019.41
2022-09-15T21:46:28.127Z,99022.25
2022-09-15T21:48:57.593Z,99020.44
2022-09-15T21:51:26.223Z,99025.16
2022-09-15T21:53:54.676Z,99023.56
2022-09-15T21:56:21.996Z,99022.84
2022-09-15T21:58:48.763Z,99011.59
2022-09-15T22:01:17.032Z,99009.41
2022-09-15T22:03:43.860Z,99006.78
2022-09-15T22:06:12.204Z,99016.31
2022-09-15T22:08:40.020Z,99008.88
2022-09-15T22:11:07.945Z,99005.56
2022-09-15T22:13:37.773Z,99028.66
2022-09-15T22:16:13.950Z,98958.75
2022-09-15T22:18:41.594Z,99028.38
2022-09-15T22:21:19.675Z,99037.31
2022-09-15T22:23:48.261Z,99039.00
2022-09-15T22:26:28.994Z,99045.81
2022-09-15T22:28:56.603Z,99022.03
2022-09-15T22:31:24.631Z,99027.84
2022-09-15T22:33:51.895Z,99025.44
2022-09-15T22:36:27.949Z,99007.72
2022-09-15T22:38:56.414Z,99035.78
2022-09-15T22:41:25.983Z,99022.53
2022-09-15T22:43:52.970Z,99029.25
2022-09-15T22:46:20.986Z,99034.75
2022-09-15T22:48:47.922Z,99036.53
2022-09-15T22:51:15.538Z,99031.72
2022-09-15T22:53:42.448Z,99032.88
2022-09-15T22:56:14.129Z,99044.72
2022-09-15T22:58:43.930Z,99038.69
2022-09-15T23:01:16.391Z,99034.66
2022-09-15T23:03:44.060Z,99035.28
2022-09-15T23:06:10.957Z,99038.78
2022-09-15T23:08:37.875Z,99032.09
2022-09-15T23:11:07.687Z,99032.75
2022-09-15T23:13:34.817Z,99024.78
2022-09-15T23:16:02.262Z,99037.13
2022-09-15T23:18:29.539Z,99034.63
2022-09-15T23:20:58.485Z,99034.94
2022-09-15T23:23:26.075Z,99033.25
2022-09-15T23:25:53.099Z,99041.22
2022-09-15T23:28:20.290Z,99013.09
2022-09-15T23:30:51.728Z,99040.94
2022-09-15T23:33:18.701Z,99038.56
2022-09-15T23:35:45.882Z,99033.88
2022-09-15T23:38:13.120Z,99020.78
2022-09-15T23:40:43.910Z,99017.25
2022-09-15T23:43:11.440Z,98993.56
2022-09-15T23:45:38.674Z,99014.19
2022-09-15T23:48:06.767Z,99017.03
2022-09-15T23:50:33.706Z,99020.75
2022-09-15T23:53:00.548Z,99015.78
2022-09-15T23:55:27.537Z,99012.28
2022-09-15T23:57:54.542Z,99024.06
